createdAt,value
2019-05-09T00:01:23.684Z,17.87
2019-05-09T00:03:53.819Z,18.37
2019-05-09T00:06:23.901Z,19.97
2019-05-09T00:08:53.259Z,18.67
2019-05-09T00:11:21.854Z,16.30
2019-05-09T00:13:50.257Z,15.57
2019-05-09T00:16:18.756Z,18.63
2019-05-09T00:18:47.254Z,18.00
2019-05-09T00:21:26.109Z,20.17
2019-05-09T00:23:54.548Z,15.10
2019-05-09T00:26:23.525Z,16.07
2019-05-09T00:28:59.452Z,15.37
2019-05-09T00:31:38.637Z,14.30
2019-05-09T00:34:08.712Z,16.00
2019-05-09T00:36:37.113Z,16.13
2019-05-09T00:39:06.492Z,18.70
2019-05-09T00:41:34.988Z,19.63
2019-05-09T00:44:05.028Z,17.37
2019-05-09T00:46:43.128Z,16.90
2019-05-09T00:49:19.039Z,13.63
2019-05-09T00:51:47.472Z,15.03
2019-05-09T00:54:16.193Z,15.23
2019-05-09T00:56:44.632Z,13.80
2019-05-09T00:59:13.611Z,13.77
2019-05-09T01:01:43.704Z,13.63
2019-05-09T01:04:13.709Z,13.83
2019-05-09T01:06:43.433Z,14.87
2019-05-09T01:09:13.660Z,14.07
2019-05-09T01:11:43.969Z,18.07
2019-05-09T01:14:14.166Z,15.87
2019-05-09T01:16:44.000Z,17.33
2019-05-09T01:19:14.153Z,11.47
2019-05-09T01:21:43.866Z,9.97
2019-05-09T01:24:13.867Z,9.77
2019-05-09T01:26:43.481Z,9.87
2019-05-09T01:29:13.783Z,10.77
2019-05-09T01:31:43.598Z,9.17
2019-05-09T01:34:23.987Z,9.03
2019-05-09T01:37:05.119Z,9.77
2019-05-09T01:39:35.067Z,8.23
2019-05-09T01:42:03.704Z,9.53
2019-05-09T01:44:33.508Z,9.03
2019-05-09T01:47:03.750Z,9.40
2019-05-09T01:49:34.099Z,9.57
2019-05-09T01:52:03.468Z,8.97
2019-05-09T01:54:33.644Z,10.80
2019-05-09T01:57:03.284Z,11.50
2019-05-09T01:59:33.903Z,11.17
2019-05-09T02:02:08.363Z,10.50
2019-05-09T02:04:33.408Z,9.87
2019-05-09T02:07:04.122Z,9.73
2019-05-09T02:09:34.232Z,10.43
2019-05-09T02:12:03.831Z,12.97
2019-05-09T02:14:50.324Z,11.77
2019-05-09T02:17:36.584Z,11.40
2019-05-09T02:20:05.503Z,11.10
2019-05-09T02:22:34.815Z,13.13
2019-05-09T02:25:06.481Z,10.10
2019-05-09T02:27:35.016Z,11.57
2019-05-09T02:30:06.029Z,12.13
2019-05-09T02:32:35.597Z,10.93
2019-05-09T02:35:06.144Z,11.30
2019-05-09T02:37:34.642Z,11.17
2019-05-09T02:40:03.492Z,12.43
2019-05-09T02:42:32.089Z,13.07
2019-05-09T02:45:00.770Z,15.77
2019-05-09T02:47:29.263Z,14.43
2019-05-09T02:49:58.910Z,13.93
2019-05-09T02:52:28.710Z,16.30
2019-05-09T02:54:58.368Z,20.50
2019-05-09T02:57:29.444Z,20.50
2019-05-09T02:59:59.374Z,16.90
2019-05-09T03:02:38.801Z,18.20
2019-05-09T03:05:08.832Z,20.17
2019-05-09T03:07:49.069Z,20.73
2019-05-09T03:10:19.248Z,20.17
2019-05-09T03:12:50.272Z,21.83
2019-05-09T03:15:18.895Z,19.80
2019-05-09T03:17:49.406Z,24.53
2019-05-09T03:20:19.362Z,26.07
2019-05-09T03:22:48.624Z,26.50
2019-05-09T03:25:19.141Z,22.70
2019-05-09T03:27:51.936Z,28.70
2019-05-09T03:30:24.474Z,28.93
2019-05-09T03:32:52.891Z,27.70
2019-05-09T03:35:21.320Z,32.07
2019-05-09T03:38:08.398Z,32.23
2019-05-09T03:40:37.814Z,30.73
2019-05-09T03:43:07.929Z,31.30
2019-05-09T03:45:41.210Z,30.90
2019-05-09T03:48:19.960Z,28.50
2019-05-09T03:50:48.768Z,29.63
2019-05-09T03:53:18.465Z,33.73
2019-05-09T03:55:47.619Z,40.43
2019-05-09T03:58:20.372Z,33.37
2019-05-09T04:00:48.791Z,33.13
2019-05-09T04:03:19.844Z,32.20
2019-05-09T04:05:58.471Z,28.33
2019-05-09T04:08:19.163Z,31.83
2019-05-09T04:10:50.278Z,32.30
2019-05-09T04:13:20.618Z,36.10
2019-05-09T04:15:49.927Z,39.47
2019-05-09T04:18:18.429Z,34.43
2019-05-09T04:20:48.277Z,34.47
2019-05-09T04:23:18.602Z,34.80
2019-05-09T04:25:58.295Z,38.73
2019-05-09T04:28:27.786Z,34.50
2019-05-09T04:30:58.132Z,34.90
2019-05-09T04:33:27.923Z,39.03
2019-05-09T04:35:57.939Z,37.73
2019-05-09T04:38:27.956Z,41.03
2019-05-09T04:40:58.348Z,40.60
2019-05-09T04:43:34.607Z,44.47
2019-05-09T04:45:58.432Z,43.17
2019-05-09T04:48:31.048Z,46.83
2019-05-09T04:51:01.485Z,42.13
2019-05-09T04:53:30.324Z,43.37
2019-05-09T04:56:00.480Z,47.53
2019-05-09T04:58:28.886Z,53.13
2019-05-09T05:01:01.956Z,47.03
2019-05-09T05:03:30.457Z,47.03
2019-05-09T05:05:58.869Z,45.47
2019-05-09T05:08:28.524Z,45.73
2019-05-09T05:10:58.254Z,49.03
2019-05-09T05:13:29.513Z,47.10
2019-05-09T05:15:57.850Z,51.07
2019-05-09T05:18:28.470Z,46.03
2019-05-09T05:20:57.662Z,48.63
2019-05-09T05:23:30.196Z,45.83
2019-05-09T05:26:00.145Z,41.97
2019-05-09T05:28:28.583Z,42.87
2019-05-09T05:30:58.212Z,42.83
2019-05-09T05:33:38.263Z,44.17
2019-05-09T05:36:14.329Z,48.57
2019-05-09T05:38:42.805Z,45.03
2019-05-09T05:41:11.239Z,47.80
2019-05-09T05:43:44.302Z,43.57
2019-05-09T05:46:14.117Z,46.30
2019-05-09T05:48:43.197Z,46.67
2019-05-09T05:51:11.866Z,44.43
2019-05-09T05:53:40.312Z,46.90
2019-05-09T05:56:08.756Z,46.43
2019-05-09T05:58:38.610Z,49.07
2019-05-09T06:01:08.191Z,48.70
2019-05-09T06:03:37.673Z,46.90
2019-05-09T06:06:08.599Z,50.40
2019-05-09T06:08:38.058Z,47.67
2019-05-09T06:11:11.358Z,45.23
2019-05-09T06:13:37.936Z,49.80
2019-05-09T06:16:08.566Z,50.27
2019-05-09T06:18:38.461Z,52.43
2019-05-09T06:21:08.897Z,49.90
2019-05-09T06:23:37.465Z,50.87
2019-05-09T06:26:09.431Z,51.30
2019-05-09T06:28:37.668Z,57.43
2019-05-09T06:31:07.584Z,53.83
2019-05-09T06:33:45.017Z,52.27
2019-05-09T06:36:07.965Z,54.83
2019-05-09T06:38:38.420Z,52.40
2019-05-09T06:41:08.858Z,53.07
2019-05-09T06:43:39.527Z,54.67
2019-05-09T06:46:09.778Z,52.70
2019-05-09T06:48:39.829Z,53.73
2019-05-09T06:51:11.584Z,52.83
2019-05-09T06:53:40.014Z,56.70
2019-05-09T06:56:08.420Z,52.30
2019-05-09T06:58:38.299Z,54.90
2019-05-09T07:01:14.508Z,53.90
2019-05-09T07:03:53.283Z,54.60
2019-05-09T07:06:23.335Z,50.43
2019-05-09T07:08:53.376Z,56.77
2019-05-09T07:11:21.829Z,56.17
2019-05-09T07:13:50.273Z,55.63
2019-05-09T07:16:18.869Z,52.93
2019-05-09T07:18:48.462Z,49.57
2019-05-09T07:21:18.996Z,51.17
2019-05-09T07:23:47.946Z,50.87
2019-05-09T07:26:29.689Z,48.57
2019-05-09T07:28:59.508Z,54.77
2019-05-09T07:31:32.764Z,53.73
2019-05-09T07:34:18.435Z,53.83
2019-05-09T07:36:47.620Z,54.53
2019-05-09T07:39:17.569Z,58.17
2019-05-09T07:41:47.832Z,62.37
2019-05-09T07:44:18.218Z,57.37
2019-05-09T07:46:50.664Z,58.07
2019-05-09T07:49:19.064Z,57.70
2019-05-09T07:51:47.809Z,48.23
2019-05-09T07:54:21.984Z,47.83
2019-05-09T07:56:48.596Z,54.87
2019-05-09T07:59:18.076Z,49.63
2019-05-09T08:01:48.721Z,51.93
2019-05-09T08:04:18.252Z,52.90
2019-05-09T08:06:48.691Z,53.70
2019-05-09T08:09:18.692Z,55.03
2019-05-09T08:11:48.301Z,59.17
2019-05-09T08:14:20.009Z,54.63
2019-05-09T08:16:48.436Z,51.57
2019-05-09T08:19:18.092Z,49.80
2019-05-09T08:21:47.949Z,45.60
2019-05-09T08:24:18.282Z,47.50
2019-05-09T08:26:47.801Z,49.83
2019-05-09T08:29:19.550Z,51.50
2019-05-09T08:31:48.590Z,49.33
2019-05-09T08:34:18.726Z,47.43
2019-05-09T08:36:47.765Z,52.77
2019-05-09T08:39:18.390Z,49.67
2019-05-09T08:41:48.533Z,50.50
2019-05-09T08:44:18.690Z,49.20
2019-05-09T08:46:48.087Z,50.70
2019-05-09T08:49:18.277Z,44.23
2019-05-09T08:52:09.147Z,41.73
2019-05-09T08:54:41.942Z,42.40
2019-05-09T08:57:10.622Z,44.50
2019-05-09T08:59:39.031Z,50.50
2019-05-09T09:02:15.031Z,39.03
2019-05-09T09:04:38.351Z,40.37
2019-05-09T09:07:08.383Z,42.33
2019-05-09T09:09:37.880Z,45.00
2019-05-09T09:12:25.277Z,44.73
2019-05-09T09:14:38.488Z,39.83
2019-05-09T09:17:07.927Z,41.83
2019-05-09T09:19:38.596Z,35.87
2019-05-09T09:22:08.785Z,38.60
2019-05-09T09:24:37.558Z,37.93
2019-05-09T09:27:07.660Z,39.70
2019-05-09T09:29:38.066Z,37.13
2019-05-09T09:32:08.315Z,38.90
2019-05-09T09:34:37.750Z,37.57
2019-05-09T09:37:11.339Z,37.77
2019-05-09T09:39:43.202Z,33.67
2019-05-09T09:42:08.981Z,37.00
2019-05-09T09:44:39.251Z,34.40
2019-05-09T09:47:07.645Z,30.30
2019-05-09T09:49:38.167Z,30.80
2019-05-09T09:52:08.512Z,31.47
2019-05-09T09:54:38.526Z,36.37
2019-05-09T09:57:09.223Z,28.70
2019-05-09T09:59:48.442Z,28.27
2019-05-09T10:02:18.652Z,29.93
2019-05-09T10:04:47.075Z,31.73
2019-05-09T10:07:15.552Z,34.57
2019-05-09T10:09:43.986Z,28.43
2019-05-09T10:12:12.413Z,31.70
2019-05-09T10:14:42.461Z,29.23
2019-05-09T10:17:28.529Z,26.57
2019-05-09T10:20:01.625Z,28.27
2019-05-09T10:22:30.132Z,26.30
2019-05-09T10:24:58.742Z,26.60
2019-05-09T10:27:28.380Z,25.50
2019-05-09T10:29:57.496Z,25.23
2019-05-09T10:32:28.650Z,22.80
2019-05-09T10:34:58.121Z,25.33
2019-05-09T10:37:26.328Z,23.17
2019-05-09T10:39:54.770Z,20.00
2019-05-09T10:42:24.861Z,21.40
2019-05-09T10:44:54.953Z,22.50
2019-05-09T10:47:27.186Z,18.57
2019-05-09T10:49:55.140Z,18.80
2019-05-09T10:52:23.564Z,18.73
2019-05-09T10:54:51.974Z,16.13
2019-05-09T10:57:20.444Z,15.93
2019-05-09T10:59:48.892Z,14.17
2019-05-09T11:02:17.584Z,13.83
2019-05-09T11:04:48.951Z,15.63
2019-05-09T11:07:18.173Z,14.23
2019-05-09T11:09:48.094Z,15.27
2019-05-09T11:12:18.021Z,15.40
2019-05-09T11:14:48.414Z,13.20
2019-05-09T11:17:21.003Z,12.20
2019-05-09T11:19:48.201Z,9.87
2019-05-09T11:22:18.330Z,8.80
2019-05-09T11:24:50.965Z,8.90
2019-05-09T11:27:18.596Z,9.40
2019-05-09T11:29:49.762Z,7.80
2019-05-09T11:32:17.897Z,7.87
2019-05-09T11:34:48.603Z,8.40
2019-05-09T11:37:16.775Z,6.70
2019-05-09T11:39:45.173Z,6.30
2019-05-09T11:42:13.592Z,5.77
2019-05-09T11:44:42.072Z,6.40
2019-05-09T11:47:27.087Z,5.60
2019-05-09T11:49:40.629Z,5.13
2019-05-09T11:52:09.035Z,5.67
2019-05-09T11:54:38.842Z,4.20
2019-05-09T11:57:07.624Z,4.97
2019-05-09T11:59:37.962Z,4.17
2019-05-09T12:02:08.687Z,4.60
2019-05-09T12:04:37.962Z,4.37
2019-05-09T12:07:07.942Z,4.83
2019-05-09T12:09:38.488Z,5.40
2019-05-09T12:12:06.636Z,5.30
2019-05-09T12:14:35.112Z,4.97
2019-05-09T12:17:03.515Z,5.63
2019-05-09T12:19:31.937Z,5.03
2019-05-09T12:22:00.359Z,5.50
2019-05-09T12:24:29.650Z,5.40
2019-05-09T12:27:02.212Z,4.93
2019-05-09T12:29:28.824Z,4.40
2019-05-09T12:31:57.383Z,4.93
2019-05-09T12:34:27.652Z,4.33
2019-05-09T12:36:58.397Z,3.90
2019-05-09T12:39:27.504Z,3.90
2019-05-09T12:41:57.853Z,3.50
2019-05-09T12:44:28.648Z,3.53
2019-05-09T12:46:58.185Z,3.03
2019-05-09T12:49:28.322Z,2.70
2019-05-09T12:51:58.155Z,2.30
2019-05-09T12:54:27.971Z,2.57
2019-05-09T12:56:58.973Z,2.63
2019-05-09T12:59:28.651Z,2.67
2019-05-09T13:01:58.073Z,2.43
2019-05-09T13:04:28.128Z,2.30
2019-05-09T13:06:58.625Z,2.00
2019-05-09T13:09:28.643Z,2.17
2019-05-09T13:11:57.786Z,1.90
2019-05-09T13:14:28.416Z,3.40
2019-05-09T13:17:00.768Z,1.80
2019-05-09T13:19:38.135Z,1.52
2019-05-09T13:22:08.088Z,2.22
2019-05-09T13:24:37.848Z,1.42
2019-05-09T13:27:07.921Z,2.02
2019-05-09T13:29:38.124Z,1.90
2019-05-09T13:32:08.845Z,1.70
2019-05-09T13:34:38.099Z,2.10
2019-05-09T13:37:08.841Z,1.93
2019-05-09T13:39:36.756Z,1.97
2019-05-09T13:42:05.240Z,2.03
2019-05-09T13:44:33.715Z,2.07
2019-05-09T13:47:02.179Z,1.77
2019-05-09T13:49:30.616Z,1.90
2019-05-09T13:52:04.416Z,1.90
2019-05-09T13:54:29.186Z,1.57
2019-05-09T13:57:01.032Z,2.40
2019-05-09T13:59:29.997Z,2.00
2019-05-09T14:01:58.128Z,2.00
2019-05-09T14:04:28.623Z,1.97
2019-05-09T14:06:56.827Z,2.30
2019-05-09T14:09:25.256Z,1.93
2019-05-09T14:11:53.663Z,1.70
2019-05-09T14:14:22.077Z,1.60
2019-05-09T14:16:50.585Z,1.80
2019-05-09T14:19:39.853Z,1.60
2019-05-09T14:21:49.142Z,1.80
2019-05-09T14:24:19.278Z,1.67
2019-05-09T14:26:48.112Z,1.50
2019-05-09T14:29:20.616Z,1.80
2019-05-09T14:31:46.785Z,1.80
2019-05-09T14:34:15.425Z,2.17
2019-05-09T14:36:45.658Z,1.87
2019-05-09T14:39:13.993Z,1.37
2019-05-09T14:41:42.417Z,1.60
2019-05-09T14:44:10.829Z,1.77
2019-05-09T14:46:39.443Z,1.90
2019-05-09T14:49:08.067Z,1.83
2019-05-09T14:51:38.047Z,1.70
2019-05-09T14:54:08.356Z,2.17
2019-05-09T14:56:42.146Z,2.53
2019-05-09T14:59:09.750Z,1.70
2019-05-09T15:01:39.054Z,1.60
2019-05-09T15:04:08.951Z,3.00
2019-05-09T15:06:37.591Z,2.40
2019-05-09T15:09:08.216Z,1.60
2019-05-09T15:11:39.427Z,1.83
2019-05-09T15:14:08.337Z,3.23
2019-05-09T15:16:39.163Z,3.20
2019-05-09T15:19:08.408Z,4.90
2019-05-09T15:21:38.469Z,3.50
2019-05-09T15:24:09.254Z,2.27
2019-05-09T15:26:37.482Z,2.00
2019-05-09T15:29:07.952Z,1.73
2019-05-09T15:31:38.849Z,2.00
2019-05-09T15:34:08.871Z,2.07
2019-05-09T15:36:37.976Z,2.33
2019-05-09T15:39:08.143Z,1.90
2019-05-09T15:41:38.494Z,1.40
2019-05-09T15:44:08.272Z,1.70
2019-05-09T15:46:38.583Z,1.60
2019-05-09T15:49:07.706Z,1.50
2019-05-09T15:51:38.462Z,1.60
2019-05-09T15:54:08.303Z,1.80
2019-05-09T15:56:38.452Z,1.97
2019-05-09T15:59:06.591Z,1.67
2019-05-09T16:01:35.086Z,1.30
2019-05-09T16:04:03.483Z,1.60
2019-05-09T16:06:33.150Z,1.80
2019-05-09T16:09:01.885Z,1.83
2019-05-09T16:11:30.300Z,1.77
2019-05-09T16:13:58.698Z,1.77
2019-05-09T16:16:28.605Z,1.80
2019-05-09T16:18:58.288Z,1.90
2019-05-09T16:21:27.822Z,1.80
2019-05-09T16:23:59.052Z,2.00
2019-05-09T16:26:28.939Z,2.10
2019-05-09T16:28:58.121Z,2.30
2019-05-09T16:31:27.963Z,2.20
2019-05-09T16:33:58.161Z,1.60
2019-05-09T16:36:28.313Z,1.90
2019-05-09T16:38:58.477Z,1.87
2019-05-09T16:41:28.006Z,2.00
2019-05-09T16:43:58.372Z,1.93
2019-05-09T16:46:28.605Z,2.10
2019-05-09T16:48:58.149Z,2.30
2019-05-09T16:51:28.607Z,2.40
2019-05-09T16:53:58.397Z,2.60
2019-05-09T16:56:28.697Z,2.20
2019-05-09T16:58:57.803Z,2.30
2019-05-09T17:01:28.407Z,2.60
2019-05-09T17:03:57.513Z,2.70
2019-05-09T17:06:27.516Z,2.77
2019-05-09T17:08:58.230Z,2.37
2019-05-09T17:11:27.767Z,2.60
2019-05-09T17:13:58.399Z,2.30
2019-05-09T17:16:28.534Z,2.20
2019-05-09T17:18:58.210Z,2.13
2019-05-09T17:21:43.477Z,2.50
2019-05-09T17:24:16.328Z,2.20
2019-05-09T17:26:44.976Z,2.20
2019-05-09T17:29:13.377Z,2.27
2019-05-09T17:31:41.801Z,2.10
2019-05-09T17:34:12.123Z,1.87
2019-05-09T17:36:40.535Z,2.33
2019-05-09T17:39:09.029Z,2.00
2019-05-09T17:41:37.931Z,2.07
2019-05-09T17:44:07.866Z,2.10
2019-05-09T17:46:38.615Z,2.37
2019-05-09T17:49:08.309Z,2.10
2019-05-09T17:51:36.860Z,2.00
2019-05-09T17:54:07.810Z,2.20
2019-05-09T17:56:37.678Z,2.30
2019-05-09T17:59:05.540Z,2.53
2019-05-09T18:01:34.087Z,1.93
2019-05-09T18:04:02.545Z,1.90
2019-05-09T18:06:30.970Z,2.00
2019-05-09T18:08:59.385Z,2.20
2019-05-09T18:11:27.868Z,2.30
2019-05-09T18:13:56.386Z,2.23
2019-05-09T18:16:24.816Z,2.20
2019-05-09T18:18:55.466Z,2.30
2019-05-09T18:21:23.897Z,2.30
2019-05-09T18:23:52.748Z,2.50
2019-05-09T18:26:21.168Z,2.20
2019-05-09T18:28:49.586Z,2.20
2019-05-09T18:31:18.014Z,2.63
2019-05-09T18:33:53.526Z,2.50
2019-05-09T18:36:22.005Z,2.50
2019-05-09T18:38:50.469Z,1.90
2019-05-09T18:41:18.899Z,2.20
2019-05-09T18:43:47.944Z,2.13
2019-05-09T18:46:17.623Z,2.10
2019-05-09T18:48:46.713Z,1.97
2019-05-09T18:51:15.213Z,2.13
2019-05-09T18:53:43.617Z,2.30
2019-05-09T18:56:12.775Z,2.57
2019-05-09T18:58:41.196Z,2.40
2019-05-09T19:01:09.592Z,2.10
2019-05-09T19:03:38.038Z,2.37
2019-05-09T19:06:06.552Z,2.30
2019-05-09T19:08:38.168Z,2.50
2019-05-09T19:11:06.601Z,3.00
2019-05-09T19:13:35.122Z,3.00
2019-05-09T19:16:10.962Z,3.17
2019-05-09T19:18:43.444Z,2.60
2019-05-09T19:21:16.236Z,2.70
2019-05-09T19:23:44.648Z,2.90
2019-05-09T19:26:30.511Z,3.00
2019-05-09T19:28:58.915Z,2.90
2019-05-09T19:31:27.654Z,2.37
2019-05-09T19:33:56.105Z,3.00
2019-05-09T19:36:24.509Z,2.80
2019-05-09T19:38:53.835Z,2.70
2019-05-09T19:41:22.232Z,2.70
2019-05-09T19:43:50.679Z,3.20
2019-05-09T19:46:19.084Z,2.80
2019-05-09T19:48:47.522Z,2.93
2019-05-09T19:51:15.990Z,3.00
2019-05-09T19:53:44.434Z,2.80
2019-05-09T19:56:12.833Z,2.97
2019-05-09T19:58:41.489Z,3.00
2019-05-09T20:01:09.916Z,2.60
2019-05-09T20:03:38.353Z,2.93
2019-05-09T20:06:06.791Z,2.90
2019-05-09T20:08:35.280Z,3.03
2019-05-09T20:11:07.882Z,3.10
2019-05-09T20:13:47.006Z,3.63
2019-05-09T20:16:15.482Z,3.33
2019-05-09T20:18:43.932Z,3.20
2019-05-09T20:21:12.359Z,3.33
2019-05-09T20:23:40.775Z,3.93
2019-05-09T20:26:09.250Z,3.03
2019-05-09T20:28:37.690Z,3.47
2019-05-09T20:31:06.125Z,3.47
2019-05-09T20:33:35.445Z,3.17
2019-05-09T20:36:04.134Z,3.07
2019-05-09T20:38:32.774Z,3.37
2019-05-09T20:41:01.601Z,3.27
2019-05-09T20:43:30.215Z,3.47
2019-05-09T20:45:58.812Z,3.10
2019-05-09T20:48:27.513Z,3.50
2019-05-09T20:50:56.113Z,3.70
2019-05-09T20:53:24.729Z,3.97
2019-05-09T20:55:53.336Z,3.83
2019-05-09T20:58:22.966Z,3.90
2019-05-09T21:00:51.577Z,4.07
2019-05-09T21:03:20.180Z,4.33
2019-05-09T21:05:48.798Z,4.53
2019-05-09T21:08:17.385Z,4.00
2019-05-09T21:10:46.271Z,4.40
2019-05-09T21:13:14.941Z,4.40
2019-05-09T21:15:43.604Z,4.30
2019-05-09T21:18:12.300Z,4.87
2019-05-09T21:20:40.900Z,4.03
2019-05-09T21:23:22.865Z,4.67
2019-05-09T21:25:39.813Z,4.70
2019-05-09T21:28:08.412Z,4.70
2019-05-09T21:30:37.005Z,4.40
2019-05-09T21:33:05.622Z,4.97
2019-05-09T21:35:34.266Z,5.10
2019-05-09T21:38:02.705Z,4.73
2019-05-09T21:40:31.113Z,5.20
2019-05-09T21:42:59.545Z,5.63
2019-05-09T21:45:27.947Z,5.23
2019-05-09T21:47:56.372Z,4.67
2019-05-09T21:50:24.898Z,4.77
2019-05-09T21:52:53.417Z,5.20
2019-05-09T21:55:21.826Z,5.23
2019-05-09T21:57:51.452Z,5.40
2019-05-09T22:00:24.595Z,5.30
2019-05-09T22:02:55.775Z,5.10
2019-05-09T22:05:24.650Z,5.10
2019-05-09T22:07:53.124Z,4.97
2019-05-09T22:10:21.626Z,5.83
2019-05-09T22:12:50.113Z,4.90
2019-05-09T22:15:18.673Z,5.60
2019-05-09T22:17:47.099Z,5.80
2019-05-09T22:20:15.944Z,5.60
2019-05-09T22:22:44.449Z,5.67
2019-05-09T22:25:13.122Z,5.23
2019-05-09T22:27:41.598Z,4.93
2019-05-09T22:30:14.157Z,4.87
2019-05-09T22:32:42.725Z,6.30
2019-05-09T22:35:11.872Z,5.23
2019-05-09T22:37:40.305Z,5.73
2019-05-09T22:40:09.944Z,5.20
2019-05-09T22:42:38.353Z,5.30
2019-05-09T22:45:07.714Z,5.50
2019-05-09T22:47:36.184Z,5.60
2019-05-09T22:50:05.246Z,5.60
2019-05-09T22:52:33.722Z,5.83
2019-05-09T22:55:02.130Z,6.17
2019-05-09T22:57:30.543Z,6.33
2019-05-09T22:59:58.949Z,5.60
2019-05-09T23:02:27.378Z,6.23
2019-05-09T23:04:55.809Z,6.10
2019-05-09T23:07:24.279Z,6.20
2019-05-09T23:09:52.717Z,6.47
2019-05-09T23:12:21.144Z,6.80
2019-05-09T23:14:54.343Z,6.57
2019-05-09T23:17:22.787Z,6.33
2019-05-09T23:19:51.197Z,6.17
2019-05-09T23:22:20.409Z,6.77
2019-05-09T23:24:48.829Z,6.37
2019-05-09T23:27:18.892Z,6.53
2019-05-09T23:29:47.377Z,6.03
2019-05-09T23:32:29.496Z,6.27
2019-05-09T23:34:57.926Z,6.23
2019-05-09T23:37:26.328Z,5.97
2019-05-09T23:39:56.641Z,6.40
2019-05-09T23:42:25.136Z,6.17
2019-05-09T23:44:53.544Z,6.73
2019-05-09T23:47:21.960Z,6.17
2019-05-09T23:49:50.390Z,6.53
2019-05-09T23:52:18.821Z,6.40
2019-05-09T23:55:04.820Z,6.17
2019-05-09T23:57:51.050Z,6.30
